createdAt,value
2023-04-19T00:01:23.401Z,5.80
2023-04-19T00:03:52.068Z,7.10
2023-04-19T00:06:21.212Z,7.23
2023-04-19T00:08:49.523Z,6.80
2023-04-19T00:11:19.331Z,7.30
2023-04-19T00:13:49.333Z,7.10
2023-04-19T00:16:18.232Z,6.87
2023-04-19T00:18:46.787Z,7.70
2023-04-19T00:21:15.209Z,7.43
2023-04-19T00:23:43.512Z,7.90
2023-04-19T00:26:15.616Z,7.47
2023-04-19T00:28:49.749Z,8.37
2023-04-19T00:31:18.199Z,7.80
2023-04-19T00:33:46.546Z,7.33
2023-04-19T00:36:14.887Z,7.77
2023-04-19T00:38:43.224Z,8.27
2023-04-19T00:41:12.022Z,9.33
2023-04-19T00:43:40.380Z,8.63
2023-04-19T00:46:10.387Z,7.57
2023-04-19T00:48:40.479Z,9.20
2023-04-19T00:51:10.679Z,9.10
2023-04-19T00:53:40.190Z,11.63
2023-04-19T00:56:09.566Z,8.43
2023-04-19T00:58:40.132Z,9.87
2023-04-19T01:01:09.907Z,8.97
2023-04-19T01:03:38.558Z,9.37
2023-04-19T01:06:07.638Z,10.30
2023-04-19T01:08:36.121Z,10.07
2023-04-19T01:11:04.489Z,9.10
2023-04-19T01:13:32.882Z,10.17
2023-04-19T01:16:01.757Z,11.40
2023-04-19T01:18:37.366Z,9.60
2023-04-19T01:21:07.095Z,10.10
2023-04-19T01:23:36.934Z,10.37
2023-04-19T01:26:05.520Z,9.97
2023-04-19T01:28:34.526Z,10.63
2023-04-19T01:31:03.009Z,12.23
2023-04-19T01:33:31.394Z,9.90
2023-04-19T01:35:59.749Z,10.80
2023-04-19T01:38:28.132Z,11.90
2023-04-19T01:40:57.906Z,12.30
2023-04-19T01:43:26.519Z,10.53
2023-04-19T01:45:54.935Z,10.30
2023-04-19T01:48:23.248Z,13.10
2023-04-19T01:50:51.658Z,13.73
2023-04-19T01:53:20.024Z,10.80
2023-04-19T01:55:48.344Z,10.90
2023-04-19T01:58:18.075Z,12.73
2023-04-19T02:00:47.389Z,12.07
2023-04-19T02:03:15.969Z,11.70
2023-04-19T02:05:44.529Z,12.53
2023-04-19T02:08:12.895Z,13.60
2023-04-19T02:10:41.252Z,11.53
2023-04-19T02:13:09.773Z,12.03
2023-04-19T02:15:39.948Z,14.10
2023-04-19T02:18:08.560Z,13.73
2023-04-19T02:20:36.986Z,12.80
2023-04-19T02:23:05.643Z,13.93
2023-04-19T02:25:35.706Z,16.50
2023-04-19T02:28:04.238Z,13.40
2023-04-19T02:30:33.425Z,14.13
2023-04-19T02:33:04.130Z,12.33
2023-04-19T02:35:32.904Z,13.70
2023-04-19T02:38:03.833Z,14.50
2023-04-19T02:40:32.376Z,14.53
2023-04-19T02:43:00.762Z,16.70
2023-04-19T02:45:29.174Z,14.77
2023-04-19T02:47:58.905Z,14.30
2023-04-19T02:50:29.160Z,14.90
2023-04-19T02:52:58.894Z,20.13
2023-04-19T02:55:29.183Z,15.10
2023-04-19T02:58:06.740Z,16.50
2023-04-19T03:00:40.038Z,17.33
2023-04-19T03:03:12.558Z,15.27
2023-04-19T03:05:42.375Z,16.87
2023-04-19T03:08:12.059Z,15.77
2023-04-19T03:10:41.127Z,16.63
2023-04-19T03:13:10.678Z,16.23
2023-04-19T03:15:39.148Z,16.20
2023-04-19T03:18:07.929Z,16.60
2023-04-19T03:20:38.382Z,17.10
2023-04-19T03:23:08.862Z,16.00
2023-04-19T03:25:37.220Z,16.47
2023-04-19T03:28:20.299Z,16.53
2023-04-19T03:31:08.692Z,16.40
2023-04-19T03:33:37.196Z,17.50
2023-04-19T03:36:06.494Z,17.60
2023-04-19T03:38:37.843Z,18.10
2023-04-19T03:41:20.455Z,18.17
2023-04-19T03:43:51.676Z,18.10
2023-04-19T03:46:21.369Z,16.90
2023-04-19T03:48:52.424Z,19.37
2023-04-19T03:51:21.837Z,17.13
2023-04-19T03:53:51.687Z,16.63
2023-04-19T03:56:21.053Z,18.70
2023-04-19T03:58:52.769Z,19.37
2023-04-19T04:01:21.783Z,17.20
2023-04-19T04:03:51.740Z,18.37
2023-04-19T04:06:20.629Z,16.90
2023-04-19T04:08:49.331Z,18.27
2023-04-19T04:11:19.150Z,17.10
2023-04-19T04:13:50.514Z,18.50
2023-04-19T04:16:23.315Z,16.40
2023-04-19T04:18:54.138Z,17.10
2023-04-19T04:21:27.275Z,16.30
2023-04-19T04:23:58.008Z,15.87
2023-04-19T04:26:39.406Z,17.70
2023-04-19T04:29:15.505Z,16.30
2023-04-19T04:31:44.742Z,15.97
2023-04-19T04:34:15.026Z,15.50
2023-04-19T04:36:51.449Z,16.80
2023-04-19T04:39:21.738Z,16.27
2023-04-19T04:41:51.966Z,15.80
2023-04-19T04:44:22.501Z,17.63
2023-04-19T04:46:50.974Z,17.30
2023-04-19T04:49:25.841Z,17.33
2023-04-19T04:51:54.285Z,17.63
2023-04-19T04:54:23.680Z,20.37
2023-04-19T04:56:54.239Z,16.53
2023-04-19T04:59:23.410Z,18.60
2023-04-19T05:01:51.955Z,18.80
2023-04-19T05:04:21.030Z,17.90
2023-04-19T05:06:49.534Z,18.57
2023-04-19T05:09:23.559Z,20.00
2023-04-19T05:11:53.683Z,19.17
2023-04-19T05:14:22.244Z,17.23
2023-04-19T05:16:50.673Z,18.10
2023-04-19T05:19:19.321Z,18.60
2023-04-19T05:21:54.609Z,19.67
2023-04-19T05:24:23.044Z,18.23
2023-04-19T05:26:54.072Z,17.10
2023-04-19T05:29:22.585Z,19.30
2023-04-19T05:31:54.940Z,18.27
2023-04-19T05:34:27.190Z,18.53
2023-04-19T05:36:57.750Z,19.23
2023-04-19T05:39:26.229Z,19.17
2023-04-19T05:41:56.121Z,18.07
2023-04-19T05:44:24.507Z,17.67
2023-04-19T05:46:53.065Z,18.97
2023-04-19T05:49:36.172Z,18.00
2023-04-19T05:52:30.758Z,16.47
2023-04-19T05:55:01.524Z,18.00
2023-04-19T05:57:31.621Z,17.20
2023-04-19T06:02:46.660Z,15.93
2023-04-19T06:05:16.169Z,16.80
2023-04-19T06:07:54.444Z,14.63
2023-04-19T06:10:24.878Z,16.10
2023-04-19T06:12:56.032Z,14.37
2023-04-19T06:15:26.000Z,13.37
2023-04-19T06:17:54.835Z,16.23
2023-04-19T06:20:23.234Z,14.70
2023-04-19T06:22:51.895Z,12.30
2023-04-19T06:25:20.758Z,13.80
2023-04-19T06:27:49.211Z,12.37
2023-04-19T06:30:19.131Z,13.13
2023-04-19T06:32:47.563Z,15.03
2023-04-19T06:35:16.621Z,13.50
2023-04-19T06:37:45.031Z,14.37
2023-04-19T06:40:13.741Z,11.10
2023-04-19T06:42:42.132Z,11.03
2023-04-19T06:45:12.209Z,13.07
2023-04-19T06:47:42.123Z,14.43
2023-04-19T06:50:11.937Z,12.00
2023-04-19T06:52:40.826Z,11.93
2023-04-19T06:55:11.130Z,10.40
2023-04-19T06:57:39.681Z,10.93
2023-04-19T07:00:10.088Z,12.00
2023-04-19T07:02:38.563Z,9.50
2023-04-19T07:05:09.328Z,10.53
2023-04-19T07:07:41.641Z,10.40
2023-04-19T07:10:12.862Z,11.50
2023-04-19T07:12:41.302Z,9.97
2023-04-19T07:15:11.296Z,10.20
2023-04-19T07:17:39.932Z,9.60
2023-04-19T07:20:12.034Z,9.00
2023-04-19T07:22:40.472Z,10.20
2023-04-19T07:25:10.489Z,7.97
2023-04-19T07:27:38.895Z,8.37
2023-04-19T07:30:09.262Z,8.80
2023-04-19T07:32:37.709Z,8.20
2023-04-19T07:35:07.496Z,7.67
2023-04-19T07:37:37.472Z,7.43
2023-04-19T07:40:07.681Z,7.53
2023-04-19T07:42:36.053Z,7.90
2023-04-19T07:45:05.874Z,8.17
2023-04-19T07:47:34.398Z,6.60
2023-04-19T07:50:03.018Z,7.10
2023-04-19T07:52:31.379Z,6.07
2023-04-19T07:55:01.499Z,5.90
2023-04-19T07:57:29.928Z,6.80
2023-04-19T07:59:59.376Z,6.20
2023-04-19T08:02:28.533Z,5.77
2023-04-19T08:04:58.025Z,7.00
2023-04-19T08:07:26.541Z,5.10
2023-04-19T08:09:55.046Z,6.50
2023-04-19T08:12:35.130Z,7.47
2023-04-19T08:15:29.558Z,8.37
2023-04-19T08:17:58.759Z,5.43
2023-04-19T08:20:27.424Z,6.57
2023-04-19T08:22:55.801Z,6.10
2023-04-19T08:25:26.910Z,5.17
2023-04-19T08:27:57.490Z,5.43
2023-04-19T08:30:26.233Z,5.33
2023-04-19T08:32:56.914Z,5.40
2023-04-19T08:35:26.190Z,5.77
2023-04-19T08:37:54.539Z,4.60
2023-04-19T08:40:23.290Z,5.50
2023-04-19T08:42:51.797Z,4.97
2023-04-19T08:45:28.326Z,5.07
2023-04-19T08:48:02.017Z,6.70
2023-04-19T08:50:35.974Z,6.40
2023-04-19T08:55:58.462Z,5.90
2023-04-19T08:58:51.925Z,5.17
2023-04-19T09:01:34.766Z,4.97
2023-04-19T09:04:31.730Z,5.77
2023-04-19T09:06:56.743Z,6.50
2023-04-19T09:11:59.270Z,6.27
2023-04-19T09:14:29.436Z,8.00
2023-04-19T09:17:17.831Z,5.77
2023-04-19T09:19:50.949Z,7.17
2023-04-19T09:22:20.027Z,5.63
2023-04-19T09:27:29.943Z,5.77
2023-04-19T09:30:00.316Z,6.80
2023-04-19T09:32:43.387Z,6.20
2023-04-19T09:35:11.933Z,6.73
2023-04-19T09:38:02.101Z,6.20
2023-04-19T09:40:30.385Z,5.63
2023-04-19T09:43:11.170Z,4.60
2023-04-19T09:45:47.279Z,5.33
2023-04-19T09:48:17.130Z,5.87
2023-04-19T09:51:03.176Z,5.30
2023-04-19T09:53:35.262Z,5.93
2023-04-19T09:56:06.142Z,5.40
2023-04-19T09:58:46.987Z,6.23
2023-04-19T10:01:22.097Z,7.30
2023-04-19T10:03:53.479Z,6.07
2023-04-19T10:08:55.982Z,5.20
2023-04-19T10:11:26.912Z,5.40
2023-04-19T10:14:00.470Z,5.80
2023-04-19T10:16:29.627Z,6.67
2023-04-19T10:19:00.275Z,5.67
2023-04-19T10:21:31.025Z,6.20
2023-04-19T10:24:01.031Z,5.97
2023-04-19T10:26:29.863Z,5.70
2023-04-19T10:28:58.810Z,5.30
2023-04-19T10:31:28.106Z,7.30
2023-04-19T10:33:58.493Z,6.10
2023-04-19T10:36:29.931Z,6.67
2023-04-19T10:38:58.431Z,7.20
2023-04-19T10:41:58.663Z,6.00
2023-04-19T10:44:27.067Z,5.23
2023-04-19T10:46:55.873Z,5.00
2023-04-19T10:49:27.552Z,6.33
2023-04-19T10:51:56.265Z,5.73
2023-04-19T10:54:32.552Z,4.40
2023-04-19T10:57:04.579Z,3.40
2023-04-19T10:59:34.827Z,4.30
2023-04-19T11:02:05.687Z,3.47
2023-04-19T11:05:02.524Z,3.60
2023-04-19T11:07:39.600Z,4.43
2023-04-19T11:10:09.696Z,3.33
2023-04-19T11:12:38.869Z,3.10
2023-04-19T11:15:10.662Z,3.23
2023-04-19T11:17:39.676Z,4.37
2023-04-19T11:20:12.742Z,4.30
2023-04-19T11:22:43.917Z,3.73
2023-04-19T11:25:14.548Z,4.40
2023-04-19T11:27:44.334Z,3.57
2023-04-19T11:30:22.422Z,7.13
2023-04-19T11:32:53.592Z,6.03
2023-04-19T11:35:25.306Z,3.33
2023-04-19T11:37:54.840Z,3.63
2023-04-19T11:40:26.040Z,3.13
2023-04-19T11:43:00.552Z,4.60
2023-04-19T11:45:33.466Z,2.10
2023-04-19T11:48:07.339Z,3.57
2023-04-19T11:50:39.732Z,3.80
2023-04-19T11:53:14.401Z,2.50
2023-04-19T11:55:47.707Z,2.03
2023-04-19T11:58:32.032Z,2.90
2023-04-19T12:01:09.041Z,1.70
2023-04-19T12:03:49.866Z,3.23
2023-04-19T12:06:24.471Z,4.70
2023-04-19T12:08:55.010Z,2.40
2023-04-19T12:11:26.992Z,2.73
2023-04-19T12:14:09.897Z,2.30
2023-04-19T12:16:38.688Z,1.80
2023-04-19T12:19:14.234Z,7.93
2023-04-19T12:21:44.451Z,1.83
2023-04-19T12:24:16.636Z,3.53
2023-04-19T12:26:56.440Z,1.90
2023-04-19T12:29:24.988Z,3.13
2023-04-19T12:31:53.411Z,2.70
2023-04-19T12:34:22.012Z,1.80
2023-04-19T12:36:51.806Z,3.13
2023-04-19T12:39:20.182Z,2.00
2023-04-19T12:41:49.077Z,3.20
2023-04-19T12:44:17.597Z,2.67
2023-04-19T12:46:46.053Z,2.13
2023-04-19T12:49:14.658Z,2.43
2023-04-19T12:51:43.669Z,2.13
2023-04-19T12:54:13.364Z,3.57
2023-04-19T12:56:41.887Z,1.27
2023-04-19T12:59:11.465Z,2.53
2023-04-19T13:01:39.945Z,2.30
2023-04-19T13:04:11.822Z,2.07
2023-04-19T13:06:41.047Z,2.00
2023-04-19T13:11:42.134Z,2.67
2023-04-19T13:14:10.564Z,1.67
2023-04-19T13:16:39.081Z,5.97
2023-04-19T13:19:07.705Z,1.90
2023-04-19T13:21:36.105Z,2.33
2023-04-19T13:24:04.543Z,3.07
2023-04-19T13:26:34.425Z,2.73
2023-04-19T13:29:04.660Z,3.80
2023-04-19T13:31:33.118Z,1.87
2023-04-19T13:34:02.113Z,1.40
2023-04-19T13:36:31.128Z,1.87
2023-04-19T13:38:59.722Z,2.37
2023-04-19T13:41:28.056Z,2.77
2023-04-19T13:43:56.482Z,3.23
2023-04-19T13:46:26.304Z,1.60
2023-04-19T13:48:54.822Z,1.50
2023-04-19T13:51:23.334Z,3.43
2023-04-19T13:53:51.693Z,1.50
2023-04-19T13:56:20.157Z,2.10
2023-04-19T13:58:48.657Z,2.70
2023-04-19T14:01:17.235Z,2.10
2023-04-19T14:03:47.192Z,1.90
2023-04-19T14:06:15.693Z,2.07
2023-04-19T14:08:45.203Z,3.43
2023-04-19T14:11:13.620Z,3.30
2023-04-19T14:13:42.142Z,1.73
2023-04-19T14:16:10.606Z,1.80
2023-04-19T14:18:39.019Z,2.33
2023-04-19T14:21:08.970Z,2.73
2023-04-19T14:23:37.461Z,2.20
2023-04-19T14:26:06.226Z,2.87
2023-04-19T14:28:34.702Z,1.60
2023-04-19T14:31:03.143Z,2.37
2023-04-19T14:33:32.008Z,2.30
2023-04-19T14:36:00.473Z,2.43
2023-04-19T14:38:30.295Z,2.00
2023-04-19T14:40:58.703Z,2.67
2023-04-19T14:43:27.262Z,2.53
2023-04-19T14:45:55.741Z,4.80
2023-04-19T14:48:24.129Z,3.17
2023-04-19T14:50:52.519Z,2.10
2023-04-19T14:53:20.967Z,2.60
2023-04-19T14:55:50.728Z,2.57
2023-04-19T14:58:19.083Z,4.53
2023-04-19T15:00:47.435Z,2.60
2023-04-19T15:03:16.174Z,2.93
2023-04-19T15:05:44.743Z,2.47
2023-04-19T15:08:29.111Z,1.83
2023-04-19T15:10:59.816Z,2.10
2023-04-19T15:13:29.712Z,2.80
2023-04-19T15:15:59.520Z,2.27
2023-04-19T15:18:29.047Z,2.70
2023-04-19T15:20:57.479Z,2.80
2023-04-19T15:23:26.788Z,3.77
2023-04-19T15:25:55.878Z,2.37
2023-04-19T15:28:26.304Z,3.00
2023-04-19T15:31:00.829Z,3.20
2023-04-19T15:33:29.707Z,3.53
2023-04-19T15:35:59.152Z,6.90
2023-04-19T15:38:31.441Z,3.60
2023-04-19T15:41:00.800Z,2.27
2023-04-19T15:43:30.723Z,2.63
2023-04-19T15:45:59.202Z,3.83
2023-04-19T15:48:29.817Z,2.40
2023-04-19T15:50:59.191Z,2.70
2023-04-19T15:53:27.729Z,3.67
2023-04-19T15:55:56.294Z,4.27
2023-04-19T15:58:25.135Z,3.33
2023-04-19T16:00:55.102Z,3.67
2023-04-19T16:03:23.927Z,2.80
2023-04-19T16:05:52.613Z,2.60
2023-04-19T16:08:21.265Z,3.73
2023-04-19T16:10:51.046Z,2.57
2023-04-19T16:13:19.662Z,2.73
2023-04-19T16:15:48.126Z,2.50
2023-04-19T16:18:17.908Z,3.10
2023-04-19T16:20:46.325Z,2.80
2023-04-19T16:23:14.818Z,4.07
2023-04-19T16:25:43.344Z,3.70
2023-04-19T16:28:11.713Z,2.60
2023-04-19T16:30:40.050Z,4.97
2023-04-19T16:33:08.487Z,2.27
2023-04-19T16:35:38.229Z,2.60
2023-04-19T16:38:07.056Z,4.83
2023-04-19T16:40:35.489Z,5.23
2023-04-19T16:43:04.841Z,4.40
2023-04-19T16:45:33.367Z,7.53
2023-04-19T16:48:01.915Z,2.73
2023-04-19T16:50:30.552Z,5.00
2023-04-19T16:53:00.440Z,4.43
2023-04-19T16:55:28.973Z,3.20
2023-04-19T16:57:57.350Z,5.07
2023-04-19T17:00:26.106Z,3.10
2023-04-19T17:02:54.769Z,5.30
2023-04-19T17:05:23.301Z,4.50
2023-04-19T17:07:52.994Z,5.43
2023-04-19T17:10:26.276Z,13.33
2023-04-19T17:12:55.608Z,2.40
2023-04-19T17:15:23.983Z,3.00
2023-04-19T17:17:52.584Z,2.77
2023-04-19T17:20:21.216Z,3.03
2023-04-19T17:22:49.651Z,5.90
2023-04-19T17:25:18.864Z,5.17
2023-04-19T17:27:49.741Z,2.20
2023-04-19T17:30:18.213Z,2.37
2023-04-19T17:32:46.808Z,3.23
2023-04-19T17:35:16.371Z,4.47
2023-04-19T17:37:44.981Z,2.90
2023-04-19T17:40:14.013Z,3.73
2023-04-19T17:42:42.375Z,4.93
2023-04-19T17:45:13.219Z,3.00
2023-04-19T17:47:42.000Z,4.07
2023-04-19T17:50:13.813Z,3.57
2023-04-19T17:52:42.243Z,5.97
2023-04-19T17:55:11.139Z,4.57
2023-04-19T17:57:40.106Z,3.40
2023-04-19T18:00:11.954Z,4.27
2023-04-19T18:02:40.772Z,4.90
2023-04-19T18:05:09.796Z,3.07
2023-04-19T18:07:38.265Z,2.93
2023-04-19T18:10:08.071Z,4.17
2023-04-19T18:12:36.729Z,4.00
2023-04-19T18:15:07.270Z,2.93
2023-04-19T18:17:37.372Z,3.07
2023-04-19T18:20:07.278Z,5.03
2023-04-19T18:22:35.755Z,3.40
2023-04-19T18:25:04.187Z,3.37
2023-04-19T18:27:32.758Z,3.07
2023-04-19T18:30:03.742Z,3.53
2023-04-19T18:32:32.778Z,3.83
2023-04-19T18:35:04.135Z,4.07
2023-04-19T18:37:32.634Z,9.00
2023-04-19T18:40:01.099Z,4.80
2023-04-19T18:42:29.565Z,5.03
2023-04-19T18:44:57.988Z,4.10
2023-04-19T18:47:27.584Z,3.70
2023-04-19T18:52:28.741Z,3.90
2023-04-19T18:54:58.436Z,3.00
2023-04-19T18:57:27.841Z,5.30
2023-04-19T18:59:57.416Z,3.50
2023-04-19T19:02:27.413Z,4.67
2023-04-19T19:05:01.097Z,3.60
2023-04-19T19:10:10.733Z,3.50
2023-04-19T19:12:46.737Z,4.13
2023-04-19T19:15:15.813Z,7.00
2023-04-19T19:17:49.449Z,3.37
2023-04-19T19:20:19.645Z,3.97
2023-04-19T19:22:49.420Z,2.70
2023-04-19T19:25:17.856Z,5.10
2023-04-19T19:28:02.899Z,6.93
2023-04-19T19:30:34.823Z,3.57
2023-04-19T19:33:04.795Z,5.00
2023-04-19T19:35:33.601Z,4.93
2023-04-19T19:38:03.455Z,3.63
2023-04-19T19:40:32.983Z,3.30
2023-04-19T19:43:02.205Z,6.90
2023-04-19T19:45:31.332Z,7.93
2023-04-19T19:48:00.918Z,4.43
2023-04-19T19:53:03.096Z,3.13
2023-04-19T19:55:31.542Z,5.10
2023-04-19T20:00:44.991Z,4.03
2023-04-19T20:03:28.555Z,3.87
2023-04-19T20:06:17.756Z,3.80
2023-04-19T20:08:51.444Z,5.23
2023-04-19T20:11:24.703Z,5.40
2023-04-19T20:13:53.167Z,6.83
2023-04-19T20:16:21.638Z,3.27
2023-04-19T20:18:50.189Z,4.53
2023-04-19T20:21:19.651Z,3.63
2023-04-19T20:23:48.181Z,4.77
2023-04-19T20:26:17.973Z,2.97
2023-04-19T20:28:46.374Z,5.60
2023-04-19T20:31:14.774Z,4.57
2023-04-19T20:33:43.135Z,5.37
2023-04-19T20:36:13.909Z,3.37
2023-04-19T20:38:42.526Z,5.27
2023-04-19T20:41:10.840Z,3.67
2023-04-19T20:43:40.619Z,6.10
2023-04-19T20:46:09.429Z,4.47
2023-04-19T20:48:38.015Z,5.93
2023-04-19T20:51:06.459Z,6.40
2023-04-19T20:53:35.333Z,6.73
2023-04-19T20:56:03.759Z,4.03
2023-04-19T20:58:33.797Z,4.93
2023-04-19T21:01:03.616Z,5.33
2023-04-19T21:03:32.180Z,4.07
2023-04-19T21:06:00.712Z,5.47
2023-04-19T21:08:29.096Z,3.80
2023-04-19T21:10:57.558Z,4.70
2023-04-19T21:13:26.132Z,4.70
2023-04-19T21:15:54.706Z,3.50
2023-04-19T21:18:24.672Z,5.90
2023-04-19T21:20:53.150Z,4.00
2023-04-19T21:23:21.530Z,4.20
2023-04-19T21:25:49.946Z,6.47
2023-04-19T21:28:18.509Z,6.07
2023-04-19T21:30:47.007Z,4.90
2023-04-19T21:33:17.944Z,4.23
2023-04-19T21:35:47.678Z,5.47
2023-04-19T21:38:16.088Z,5.53
2023-04-19T21:40:44.481Z,3.83
2023-04-19T21:43:12.992Z,6.90
2023-04-19T21:45:41.356Z,6.30
2023-04-19T21:48:09.793Z,6.37
2023-04-19T21:50:38.298Z,6.63
2023-04-19T21:53:08.139Z,3.40
2023-04-19T21:55:36.533Z,6.87
2023-04-19T21:58:04.975Z,5.57
2023-04-19T22:00:33.480Z,4.93
2023-04-19T22:03:01.957Z,5.33
2023-04-19T22:05:30.532Z,5.57
2023-04-19T22:07:58.984Z,6.80
2023-04-19T22:10:31.461Z,4.77
2023-04-19T22:13:00.177Z,5.17
2023-04-19T22:15:28.664Z,5.30
2023-04-19T22:17:58.184Z,3.90
2023-04-19T22:20:27.169Z,4.97
2023-04-19T22:22:55.704Z,3.70
2023-04-19T22:25:24.115Z,4.50
2023-04-19T22:27:53.825Z,6.97
2023-04-19T22:30:22.338Z,3.27
2023-04-19T22:32:51.230Z,3.50
2023-04-19T22:35:22.585Z,3.50
2023-04-19T22:37:51.579Z,6.07
2023-04-19T22:40:20.034Z,3.90
2023-04-19T22:42:48.419Z,4.53
2023-04-19T22:45:18.355Z,4.03
2023-04-19T22:47:46.862Z,5.07
2023-04-19T22:50:15.566Z,5.80
2023-04-19T22:52:44.651Z,3.87
2023-04-19T22:55:13.133Z,3.57
2023-04-19T22:57:43.039Z,3.63
2023-04-19T23:00:12.799Z,3.80
2023-04-19T23:02:42.734Z,6.23
2023-04-19T23:05:11.441Z,3.70
2023-04-19T23:07:42.563Z,4.20
2023-04-19T23:10:12.319Z,3.67
2023-04-19T23:12:40.787Z,7.93
2023-04-19T23:15:11.153Z,6.60
2023-04-19T23:17:40.580Z,5.63
2023-04-19T23:20:12.058Z,9.90
2023-04-19T23:22:40.990Z,5.47
2023-04-19T23:25:10.620Z,5.77
2023-04-19T23:27:39.106Z,4.63
2023-04-19T23:30:09.285Z,4.47
2023-04-19T23:32:37.849Z,4.70
2023-04-19T23:35:06.959Z,5.00
2023-04-19T23:37:36.777Z,4.27
2023-04-19T23:40:06.713Z,4.70
2023-04-19T23:42:35.461Z,4.47
2023-04-19T23:45:03.971Z,7.33
2023-04-19T23:47:32.358Z,6.80
2023-04-19T23:50:01.514Z,4.40
2023-04-19T23:52:29.958Z,4.20
2023-04-19T23:54:59.706Z,4.73
2023-04-19T23:57:28.179Z,5.07
2023-04-19T23:59:56.705Z,4.67
